Preston Ferry, Arkansas
Current Conditions -  °F | °C
As of 1:55 PM on Tuesday 21 Oct 2014 (Local Time) from KSGT Reporting Station
Clear Clear  
Wind Chill: 77°   Ceiling: Unl
Heat Index: 78°   Visibility: 10mi
Dew Point: 54°   Wind: 7mph
Humidity: 44%   Direction: 10°N
Pressure: 30.07"   Gusts: NA
Location:  34.6163°N, 91.3754°W
Report Text: KSGT 211855Z AUTO 01006KT 10SM CLR 25/12 A3007 RMK AO1
Loading
Personal Weather Stations






























Interactive Weather Map New forecast layout! Learn more

10-Day Weather Forecast

Advertisements
Track Severe Weather on mobile